Alexandra Headland, Australia

6:16 PM AEST on March 23, 2017 (GMT +1000)
Coastal Hillside, Valley | | Change Station

Elev 236 ft 26.68 °S, 153.08 °E | Updated 1 minute ago

Mostly Cloudy
Mostly Cloudy
79.5 °F
Feels Like 85 °F
N
0.0
Wind Variable Wind from WNW
Gusts 0.0 mph

Today
High -- | Low -- °F
--% Chance of Precip.
Yesterday
High -- | Low -- °F
Precip. -- in
Pressure 29.95 in
Visibility 6.2 miles
Clouds Few 2000 ft
Mostly Cloudy 10000 ft
Heat Index 85 °F
Dew Point 78 °F
Humidity 95%
Rainfall 0.02 in
Snow Depth Not available.
5:52 AM 5:55 PM
Waning Crescent, 25% visible
METAR YBBN 230800Z 06006KT 9999 FEW020 BKN100 26/22 Q1014 NOSIG
Pressure 29.95 in
Visibility 6.2 miles
Clouds Few 2000 ft
Mostly Cloudy 10000 ft
Heat Index 85 °F
Dew Point 78 °F
Humidity 95%
Rainfall 0.02 in
Snow Depth Not available.
5:52 AM 5:55 PM
Waning Crescent, 25% visible
METAR YBBN 230800Z 06006KT 9999 FEW020 BKN100 26/22 Q1014 NOSIG

Get Severe Weather Alerts

Thanks for signing up!

Be on the lookout for a verification email in your inbox.

You'll start receiving the daily forecast at 8 AM.

×

10-Day Weather Forecast

×

Almanac

Astronomy

Mar. 23, 2017 Rise Set
Actual Time
Civil Twilight
Nautical Twilight
Astronomical Twilight
Moon
Length of Visible Light
Length of Day
Tomorrow will be .
, % of the Moon is Illuminated

Today's Extremes

Country Highs Country Lows

Community

WunderPhotos

Upload Photos

1,962,540 photos uploaded!

WunderBlog® & News

Nearby

Air Quality

  Air Quality AQ Index Pollutant
Not available.

Snow Depth

Station Depth Elevation

Earthquake Activity

City Distance Mag. Time & Date
Minimum magnitude displayed is 2.5.

Earthquake Activity

City Distance Mag. Time & Date
Minimum magnitude displayed is 2.5.

Coastal Water Temperatures

Place Temperature

Stations

Nearby Weather Stations

Station Location Temp. Windchill Dew Point Humidity Wind Precip. Elev Updated Type